Time;durP1;ratioP1;P1;durP2;ratioP2;P2;SDS_P1;SDS_P2;PMS_P1;PMS_P2;Temp;Humidity;BMP_temperature;BMP_pressure;BME280_temperature;BME280_humidity;BME280_pressure;Samples;Min_cycle;Max_cycle;Signal;HPM_P1;HPM_P2
2024/01/12 00:01:12;;;;;;;59.33;33.92;;;;;;;-1.76;100.00;100672.53;5072684;28;20024;-91
2024/01/12 00:03:39;;;;;;;52.25;30.40;;;;;;;-1.65;100.00;100674.44;5071538;28;20020;-91
2024/01/12 00:06:05;;;;;;;64.10;36.90;;;;;;;-1.68;100.00;100661.63;5071032;28;20029;-91
2024/01/12 00:08:32;;;;;;;47.55;26.05;;;;;;;-1.45;100.00;100703.78;5072387;28;20337;-90
2024/01/12 00:10:57;;;;;;;47.83;27.42;;;;;;;-1.47;100.00;100695.25;5072999;28;20024;-91
2024/01/12 00:13:24;;;;;;;75.10;39.63;;;;;;;-1.45;100.00;100711.44;5071556;28;20017;-91
2024/01/12 00:15:50;;;;;;;67.50;39.80;;;;;;;-1.45;100.00;100716.56;5071579;28;20149;-91
2024/01/12 00:18:16;;;;;;;64.40;35.95;;;;;;;-1.40;100.00;100714.94;5070006;28;20154;-91
2024/01/12 00:20:43;;;;;;;72.28;39.67;;;;;;;-1.41;100.00;100714.94;5053219;28;20044;-91
2024/01/12 00:23:11;;;;;;;55.90;32.30;;;;;;;-1.75;100.00;100668.28;5053309;28;20043;-90
2024/01/12 00:25:37;;;;;;;55.47;31.33;;;;;;;-1.47;100.00;100722.50;5053440;28;20031;-91
2024/01/12 00:28:02;;;;;;;47.60;25.70;;;;;;;-1.96;100.00;100640.66;5053720;28;20032;-91
2024/01/12 00:30:28;;;;;;;45.53;25.90;;;;;;;-1.46;100.00;100734.44;5053286;28;20028;-91
2024/01/12 00:32:53;;;;;;;46.45;25.55;;;;;;;-1.68;100.00;100698.25;5053410;28;20368;-91
2024/01/12 00:35:19;;;;;;;46.45;25.73;;;;;;;-1.49;100.00;100721.59;5090122;28;20490;-91
2024/01/12 00:37:44;;;;;;;41.78;24.58;;;;;;;-1.54;100.00;100717.25;5073350;28;20079;-91
2024/01/12 00:40:10;;;;;;;37.05;22.25;;;;;;;-1.39;100.00;100741.34;5073192;28;20024;-91
2024/01/12 00:42:35;;;;;;;39.95;24.23;;;;;;;-1.49;100.00;100729.25;5072948;28;20082;-91
2024/01/12 00:45:01;;;;;;;40.65;23.05;;;;;;;-1.59;100.00;100697.56;5073274;28;20036;-91
2024/01/12 00:47:26;;;;;;;34.75;20.50;;;;;;;-1.41;100.00;100728.56;5089829;28;20015;-91
2024/01/12 00:49:52;;;;;;;42.88;22.83;;;;;;;-1.39;100.00;100731.13;5090166;28;20507;-91
2024/01/12 00:52:17;;;;;;;40.58;21.80;;;;;;;-1.52;100.00;100707.03;5073299;28;20020;-91
2024/01/12 00:54:43;;;;;;;37.03;21.98;;;;;;;-1.36;100.00;100743.97;5072902;28;20043;-91
2024/01/12 00:57:08;;;;;;;36.28;21.63;;;;;;;-1.34;100.00;100745.75;5073235;28;20023;-91
2024/01/12 00:59:34;;;;;;;37.90;20.80;;;;;;;-1.45;100.00;100721.66;5089884;28;20038;-91
2024/01/12 01:01:59;;;;;;;38.30;22.15;;;;;;;-1.67;100.00;100691.44;5090157;28;20036;-91
2024/01/12 01:04:25;;;;;;;35.13;20.30;;;;;;;-1.58;100.00;100696.72;5090040;28;20020;-91
2024/01/12 01:06:52;;;;;;;45.03;26.10;;;;;;;-1.37;100.00;100730.34;5070657;28;20036;-91
2024/01/12 01:09:18;;;;;;;40.50;22.60;;;;;;;-1.31;100.00;100729.59;5070797;28;20040;-91
2024/01/12 01:11:45;;;;;;;41.85;22.30;;;;;;;-1.57;100.00;100683.09;5070977;28;20048;-91
2024/01/12 01:14:10;;;;;;;41.72;22.33;;;;;;;-1.27;100.00;100733.94;5071079;28;20391;-91
2024/01/12 01:16:36;;;;;;;36.47;20.33;;;;;;;-1.45;100.00;100718.25;5069428;28;20443;-91
2024/01/12 01:19:01;;;;;;;37.75;21.48;;;;;;;-1.60;100.00;100678.81;5056325;28;20487;-91
2024/01/12 01:21:27;;;;;;;37.58;20.70;;;;;;;-1.28;100.00;100738.19;5073229;28;20127;-90
2024/01/12 01:23:54;;;;;;;43.15;20.27;;;;;;;-1.32;100.00;100730.44;5073347;28;20029;-91
2024/01/12 01:26:19;;;;;;;44.78;23.48;;;;;;;-1.36;100.00;100724.38;5056444;28;20041;-91
2024/01/12 01:28:45;;;;;;;44.22;23.48;;;;;;;-1.32;100.00;100733.84;5073007;28;20040;-91
2024/01/12 01:31:10;;;;;;;36.00;20.65;;;;;;;-1.23;100.00;100745.06;5073194;28;20036;-90
2024/01/12 01:33:35;;;;;;;37.00;21.42;;;;;;;-1.22;100.00;100740.00;5056109;28;20025;-91
2024/01/12 01:36:01;;;;;;;34.60;20.15;;;;;;;-1.24;100.00;100738.25;5056239;28;20443;-90
2024/01/12 01:38:26;;;;;;;37.03;19.73;;;;;;;-1.36;100.00;100719.28;5056148;28;20035;-90
2024/01/12 01:40:52;;;;;;;39.65;22.02;;;;;;;-1.22;100.00;100740.00;5056141;28;20032;-91
2024/01/12 01:43:17;;;;;;;44.55;23.58;;;;;;;-1.28;100.00;100730.50;5056238;28;20040;-89
2024/01/12 01:45:43;;;;;;;36.53;21.80;;;;;;;-1.19;100.00;100745.16;5052520;28;20392;-91
2024/01/12 01:48:08;;;;;;;41.10;23.40;;;;;;;-1.42;100.00;100720.88;5052931;28;20060;-91
2024/01/12 01:50:35;;;;;;;40.28;21.30;;;;;;;-1.29;100.00;100733.06;5052742;28;20029;-90
2024/01/12 01:53:02;;;;;;;39.42;21.02;;;;;;;-1.21;100.00;100740.88;5052984;28;20033;-90
2024/01/12 01:55:30;;;;;;;42.42;22.92;;;;;;;-1.31;100.00;100733.03;5032339;28;20048;-90
2024/01/12 01:57:57;;;;;;;40.05;21.98;;;;;;;-1.35;100.00;100721.03;5032620;28;20058;-91
2024/01/12 02:00:23;;;;;;;41.25;20.58;;;;;;;-1.40;100.00;100717.50;5052440;28;20060;-90
2024/01/12 02:02:48;;;;;;;43.47;22.67;;;;;;;-1.27;100.00;100746.69;5035653;28;20044;-90
2024/01/12 02:05:14;;;;;;;36.92;20.88;;;;;;;-1.54;100.00;100688.28;5052893;28;20040;-90
2024/01/12 02:07:41;;;;;;;41.95;21.85;;;;;;;-1.33;100.00;100728.72;5052754;28;20145;-89
2024/01/12 02:10:07;;;;;;;39.65;21.00;;;;;;;-1.31;100.00;100727.03;5052835;28;20044;-90
2024/01/12 02:12:35;;;;;;;40.92;23.10;;;;;;;-1.64;100.00;100679.59;5052681;28;20102;-90
2024/01/12 02:15:00;;;;;;;41.40;21.55;;;;;;;-1.17;100.00;100751.16;5054141;28;20033;-90
2024/01/12 02:17:26;;;;;;;44.40;22.67;;;;;;;-1.13;100.00;100747.84;5074779;28;20028;-90
2024/01/12 02:19:58;;;;;;;39.40;21.75;;;;;;;-1.18;100.00;100738.34;5062603;28;20544;-90
2024/01/12 02:22:23;;;;;;;42.75;21.88;;;;;;;-1.21;100.00;100746.84;5079249;28;20099;-90
2024/01/12 02:24:49;;;;;;;41.63;22.85;;;;;;;-1.13;100.00;100749.53;5058792;28;20107;-90
2024/01/12 02:27:14;;;;;;;39.08;22.08;;;;;;;-1.20;100.00;100746.00;5055114;28;20028;-90
2024/01/12 02:29:40;;;;;;;46.42;24.55;;;;;;;-1.10;100.00;100762.34;5054356;28;20024;-90
2024/01/12 02:32:05;;;;;;;41.90;20.90;;;;;;;-1.18;100.00;100746.00;5068652;28;20033;-90
2024/01/12 02:34:30;;;;;;;41.15;21.27;;;;;;;-1.24;100.00;100738.25;5072972;28;20115;-90
2024/01/12 02:36:56;;;;;;;41.55;23.27;;;;;;;-1.18;100.00;100749.47;5073213;28;20033;-90
2024/01/12 02:39:21;;;;;;;48.47;23.20;;;;;;;-1.13;100.00;100755.50;5072979;28;20069;-90
2024/01/12 02:41:47;;;;;;;43.90;22.70;;;;;;;-1.13;100.00;100757.22;5071177;28;20036;-90
2024/01/12 02:44:12;;;;;;;44.45;21.67;;;;;;;-1.16;100.00;100742.66;5054820;28;20062;-90
2024/01/12 02:46:38;;;;;;;49.67;24.88;;;;;;;-1.11;100.00;100748.72;5071361;28;20038;-90
2024/01/12 02:49:04;;;;;;;56.97;26.58;;;;;;;-1.23;100.00;100724.63;5054690;28;20025;-90
2024/01/12 02:51:29;;;;;;;51.63;25.55;;;;;;;-1.08;100.00;100753.91;5071304;28;20043;-90
2024/01/12 02:53:55;;;;;;;51.80;24.70;;;;;;;-1.11;100.00;100738.50;5054692;28;20029;-90
2024/01/12 02:56:20;;;;;;;47.05;23.90;;;;;;;-1.09;100.00;100743.66;5054688;28;20381;-90
2024/01/12 02:58:45;;;;;;;48.33;23.38;;;;;;;-1.43;100.00;100691.91;5054437;28;20076;-90
2024/01/12 03:01:11;;;;;;;43.47;22.42;;;;;;;-1.42;100.00;100690.22;5054476;28;20507;-90
2024/01/12 03:03:36;;;;;;;50.13;23.95;;;;;;;-1.05;100.00;100743.72;5071053;28;20024;-90
2024/01/12 03:06:02;;;;;;;44.90;23.38;;;;;;;-1.18;100.00;100720.44;5051087;28;20036;-90
2024/01/12 03:08:28;;;;;;;49.42;24.92;;;;;;;-1.05;100.00;100738.63;5050979;28;20037;-90
2024/01/12 03:10:53;;;;;;;52.85;25.75;;;;;;;-1.07;100.00;100732.59;5050877;28;20044;-90
2024/01/12 03:13:18;;;;;;;51.83;26.27;;;;;;;-1.36;100.00;100688.63;5051036;28;20059;-90
2024/01/12 03:15:44;;;;;;;45.50;23.27;;;;;;;-1.13;100.00;100729.94;5050830;28;20326;-90
2024/01/12 03:18:09;;;;;;;52.60;26.17;;;;;;;-1.11;100.00;100725.72;5034265;28;20119;-90
2024/01/12 03:20:35;;;;;;;48.08;23.33;;;;;;;-1.05;100.00;100736.06;5050565;28;20128;-90
2024/01/12 03:23:00;;;;;;;49.58;25.08;;;;;;;-1.07;100.00;100729.19;5050713;28;20548;-90
2024/01/12 03:25:26;;;;;;;49.95;24.05;;;;;;;-1.05;100.00;100730.94;5034153;28;20040;-89
2024/01/12 03:27:51;;;;;;;56.88;27.15;;;;;;;-1.10;100.00;100716.34;5034242;28;20503;-91
2024/01/12 03:30:17;;;;;;;52.03;26.20;;;;;;;-1.04;100.00;100726.69;5051086;28;20124;-91
2024/01/12 03:32:43;;;;;;;46.58;22.95;;;;;;;-1.09;100.00;100713.81;5050701;28;20029;-91
2024/01/12 03:35:09;;;;;;;50.70;26.13;;;;;;;-1.25;100.00;100681.16;5050928;28;20040;-91
2024/01/12 03:37:34;;;;;;;51.70;24.70;;;;;;;-1.10;100.00;100701.00;5068299;28;20447;-91
2024/01/12 03:40:00;;;;;;;47.42;24.67;;;;;;;-1.07;100.00;100707.03;5074099;28;20073;-91
2024/01/12 03:42:25;;;;;;;55.83;27.20;;;;;;;-1.00;100.00;100720.78;5073102;28;20063;-91
2024/01/12 03:44:50;;;;;;;54.03;25.67;;;;;;;-0.99;100.00;100725.06;5073837;28;20050;-91
2024/01/12 03:47:16;;;;;;;54.78;26.48;;;;;;;-0.99;100.00;100724.22;5073925;28;20220;-91
2024/01/12 03:49:42;;;;;;;52.80;25.60;;;;;;;-0.99;100.00;100731.88;5090667;28;20028;-90
2024/01/12 03:52:08;;;;;;;58.90;27.50;;;;;;;-1.07;100.00;100712.16;5071364;28;20444;-91
2024/01/12 03:54:33;;;;;;;45.22;24.17;;;;;;;-1.04;100.00;100719.03;5071616;28;20028;-91
2024/01/12 03:56:59;;;;;;;52.75;24.60;;;;;;;-1.02;100.00;100720.75;5071769;28;20414;-91
2024/01/12 03:59:24;;;;;;;54.83;26.23;;;;;;;-1.18;100.00;100692.34;5071700;28;20031;-92
2024/01/12 04:01:49;;;;;;;53.45;24.60;;;;;;;-1.07;100.00;100714.69;5071472;28;20078;-91
2024/01/12 04:04:15;;;;;;;57.05;25.77;;;;;;;-1.26;100.00;100682.00;5071749;28;20355;-91
2024/01/12 04:06:40;;;;;;;50.97;24.63;;;;;;;-0.97;100.00;100730.19;5071547;28;20024;-90
2024/01/12 04:09:09;;;;;;;53.40;25.63;;;;;;;-1.09;100.00;100710.41;5071620;28;20040;-90
2024/01/12 04:11:36;;;;;;;54.10;25.55;;;;;;;-1.04;100.00;100732.66;5072941;28;20020;-91
2024/01/12 04:14:01;;;;;;;54.20;26.30;;;;;;;-0.94;100.00;100740.50;5071825;28;20038;-91
2024/01/12 04:16:26;;;;;;;56.95;25.77;;;;;;;-1.11;100.00;100722.28;5071622;28;20013;-91
2024/01/12 04:18:52;;;;;;;51.92;27.20;;;;;;;-1.13;100.00;100721.41;5071400;28;20020;-91
2024/01/12 04:21:17;;;;;;;56.00;26.05;;;;;;;-1.04;100.00;100730.09;5071025;28;20032;-91
2024/01/12 04:23:43;;;;;;;51.65;25.33;;;;;;;-1.16;100.00;100714.53;5069876;28;20127;-91
2024/01/12 04:26:08;;;;;;;54.78;25.25;;;;;;;-0.95;100.00;100738.78;5053430;28;20469;-91
2024/01/12 04:28:34;;;;;;;55.53;25.45;;;;;;;-1.28;100.00;100692.16;5053511;28;20036;-91
2024/01/12 04:31:03;;;;;;;49.78;26.10;;;;;;;-1.03;100.00;100742.03;5053605;28;20024;-91
2024/01/12 04:33:34;;;;;;;52.00;25.85;;;;;;;-0.96;100.00;100755.81;5053432;28;20032;-92
2024/01/12 04:36:00;;;;;;;60.33;27.40;;;;;;;-1.05;100.00;100738.63;5069706;28;20062;-87
2024/01/12 04:38:26;;;;;;;49.13;23.33;;;;;;;-1.18;100.00;100720.44;5053109;28;20479;-87
2024/01/12 04:40:53;;;;;;;47.85;24.15;;;;;;;-1.03;100.00;100741.19;5049438;28;20041;-87
2024/01/12 04:43:19;;;;;;;49.65;24.75;;;;;;;-1.24;100.00;100707.56;5049665;28;20160;-87
2024/01/12 04:45:44;;;;;;;49.25;24.40;;;;;;;-1.06;100.00;100748.78;5049633;28;20119;-87
2024/01/12 04:48:10;;;;;;;53.63;24.88;;;;;;;-1.09;100.00;100738.53;5049798;28;20073;-86
2024/01/12 04:50:35;;;;;;;51.33;23.98;;;;;;;-0.96;100.00;100752.41;5049698;28;20571;-87
2024/01/12 04:53:01;;;;;;;55.25;24.90;;;;;;;-1.31;100.00;100688.69;5051568;28;20044;-87
2024/01/12 04:55:27;;;;;;;54.30;25.20;;;;;;;-1.14;100.00;100723.09;5053632;28;20041;-87
2024/01/12 04:57:52;;;;;;;43.35;22.15;;;;;;;-1.01;100.00;100742.94;5053448;28;20025;-87
2024/01/12 05:00:19;;;;;;;47.58;23.58;;;;;;;-1.04;100.00;100739.47;5053518;28;20553;-87
2024/01/12 05:02:44;;;;;;;48.55;24.92;;;;;;;-0.95;100.00;100749.84;5036602;28;20017;-87
2024/01/12 05:05:10;;;;;;;53.58;24.40;;;;;;;-1.17;100.00;100717.09;5053500;28;20028;-87
2024/01/12 05:07:35;;;;;;;50.20;26.20;;;;;;;-1.03;100.00;100741.19;5053236;28;20021;-87
2024/01/12 05:10:03;;;;;;;50.05;24.20;;;;;;;-1.38;100.00;100677.53;5052899;28;20044;-87
2024/01/12 05:12:28;;;;;;;51.15;25.35;;;;;;;-1.05;100.00;100736.06;5053285;28;20029;-87
2024/01/12 05:14:54;;;;;;;51.85;25.58;;;;;;;-1.04;100.00;100737.78;5052993;28;20552;-87
2024/01/12 05:17:19;;;;;;;54.80;25.30;;;;;;;-1.09;100.00;100739.41;5055288;28;20033;-87
2024/01/12 05:19:45;;;;;;;47.65;24.25;;;;;;;-1.12;100.00;100731.66;5052677;28;20039;-87
2024/01/12 05:22:11;;;;;;;47.42;22.60;;;;;;;-1.03;100.00;100742.03;5053051;28;20033;-87
2024/01/12 05:24:36;;;;;;;57.17;23.88;;;;;;;-0.99;100.00;100753.19;5053017;28;20033;-87
2024/01/12 05:27:01;;;;;;;53.70;25.58;;;;;;;-1.05;100.00;100760.78;5052634;28;20516;-87
2024/01/12 05:29:27;;;;;;;44.95;22.63;;;;;;;-1.08;100.00;100748.78;5052694;28;20067;-87
2024/01/12 05:31:52;;;;;;;51.88;24.50;;;;;;;-1.20;100.00;100730.66;5052660;28;20028;-87
2024/01/12 05:34:18;;;;;;;56.28;31.30;;;;;;;-1.02;100.00;100766.78;5052774;28;20032;-87
2024/01/12 05:36:43;;;;;;;55.47;28.95;;;;;;;-1.36;100.00;100723.53;5052553;28;20500;-87
2024/01/12 05:39:09;;;;;;;47.70;23.90;;;;;;;-1.20;100.00;100746.00;5036132;28;20029;-87
2024/01/12 05:41:35;;;;;;;47.53;24.90;;;;;;;-1.05;100.00;100765.88;5056007;28;20547;-87
2024/01/12 05:44:00;;;;;;;48.35;27.05;;;;;;;-1.04;100.00;100762.47;5055850;28;20020;-87
2024/01/12 05:46:25;;;;;;;45.67;22.67;;;;;;;-1.02;100.00;100778.69;5055905;28;20151;-87
2024/01/12 05:48:51;;;;;;;47.90;22.40;;;;;;;-1.10;100.00;100762.34;5055764;28;20499;-86
2024/01/12 05:51:16;;;;;;;42.60;22.23;;;;;;;-1.18;100.00;100749.47;5067886;28;20062;-86
2024/01/12 05:53:42;;;;;;;47.55;23.05;;;;;;;-1.08;100.00;100771.78;5073745;28;20027;-86
2024/01/12 05:56:08;;;;;;;50.65;23.25;;;;;;;-1.14;100.00;100756.31;5075324;28;20022;-86
2024/01/12 05:58:33;;;;;;;45.70;22.17;;;;;;;-1.20;100.00;100753.66;5075103;28;20025;-86
2024/01/12 06:00:59;;;;;;;53.83;24.38;;;;;;;-1.15;100.00;100771.63;5074830;28;20028;-86
2024/01/12 06:03:28;;;;;;;53.70;25.60;;;;;;;-1.22;100.00;100750.22;5074642;28;20028;-86
2024/01/12 06:05:57;;;;;;;46.05;23.90;;;;;;;-1.09;100.00;100777.75;5074163;28;20362;-86
2024/01/12 06:08:22;;;;;;;49.35;23.00;;;;;;;-1.04;100.00;100785.50;5073683;28;20028;-86
2024/01/12 06:10:47;;;;;;;48.85;23.88;;;;;;;-1.11;100.00;100781.94;5075042;28;20478;-86
2024/01/12 06:13:13;;;;;;;51.13;24.90;;;;;;;-1.11;100.00;100776.84;5073919;28;20482;-86
2024/01/12 06:15:39;;;;;;;50.13;25.02;;;;;;;-1.21;100.00;100757.06;5072268;28;20043;-86
2024/01/12 06:18:05;;;;;;;43.95;23.15;;;;;;;-1.16;100.00;100769.94;5055146;28;20094;-86
2024/01/12 06:20:30;;;;;;;49.45;23.50;;;;;;;-1.18;100.00;100762.25;5055424;28;20034;-86
2024/01/12 06:22:56;;;;;;;41.60;21.95;;;;;;;-1.37;100.00;100734.59;5055300;28;20129;-86
2024/01/12 06:25:23;;;;;;;48.45;25.35;;;;;;;-1.12;100.00;100787.03;5055255;28;20063;-86
2024/01/12 06:27:49;;;;;;;45.88;24.08;;;;;;;-1.31;100.00;100747.47;5055057;28;20119;-86
2024/01/12 06:30:14;;;;;;;52.53;26.80;;;;;;;-1.20;100.00;100771.56;5071909;28;20070;-86
2024/01/12 06:32:40;;;;;;;47.63;23.73;;;;;;;-1.14;100.00;100788.69;5055075;28;20032;-86
2024/01/12 06:35:10;;;;;;;54.58;31.15;;;;;;;-1.13;100.00;100791.31;5071611;28;20033;-86
2024/01/12 06:37:36;;;;;;;54.67;28.33;;;;;;;-1.23;100.00;100765.53;5071853;28;20032;-86
2024/01/12 06:40:02;;;;;;;45.97;23.45;;;;;;;-1.69;100.00;100693.94;5054684;28;20542;-85
2024/01/12 06:42:28;;;;;;;43.92;21.92;;;;;;;-1.13;100.00;100782.78;5054964;28;20017;-86
2024/01/12 06:44:54;;;;;;;37.70;20.10;;;;;;;-1.25;100.00;100770.63;5054643;28;20032;-86
2024/01/12 06:47:20;;;;;;;38.60;20.63;;;;;;;-1.31;100.00;100756.03;5087504;28;20032;-86
2024/01/12 06:49:45;;;;;;;39.95;20.88;;;;;;;-1.22;100.00;100773.25;5091843;28;20139;-86
2024/01/12 06:52:12;;;;;;;42.47;20.95;;;;;;;-1.19;100.00;100793.72;5074828;28;20036;-86
2024/01/12 06:54:37;;;;;;;39.45;19.75;;;;;;;-1.14;100.00;100799.78;5091903;28;20490;-86
2024/01/12 06:57:03;;;;;;;37.60;19.55;;;;;;;-1.28;100.00;100770.53;5074636;28;20064;-86
2024/01/12 06:59:28;;;;;;;43.13;19.92;;;;;;;-1.14;100.00;100789.56;5075816;28;20066;-86
2024/01/12 07:01:54;;;;;;;39.72;19.15;;;;;;;-1.16;100.00;100791.22;5091292;28;20378;-86
2024/01/12 07:04:19;;;;;;;36.90;20.17;;;;;;;-1.20;100.00;100799.69;5075005;28;20039;-85
2024/01/12 07:06:45;;;;;;;37.10;19.25;;;;;;;-1.44;100.00;100789.81;5075356;28;20467;-85
2024/01/12 07:09:13;;;;;;;33.35;18.45;;;;;;;-1.38;100.00;100807.84;5071912;28;20058;-85
2024/01/12 07:11:42;;;;;;;39.75;19.63;;;;;;;-1.48;100.00;100825.50;5055042;28;20043;-85
2024/01/12 07:14:08;;;;;;;36.80;19.13;;;;;;;-1.59;100.00;100821.03;5054206;28;20045;-85
2024/01/12 07:16:35;;;;;;;39.75;19.52;;;;;;;-1.70;100.00;100817.38;5054240;28;20035;-85
2024/01/12 07:19:00;;;;;;;35.25;18.52;;;;;;;-1.70;100.00;100832.69;5070668;28;20032;-85
2024/01/12 07:21:26;;;;;;;42.33;20.40;;;;;;;-2.12;100.00;100751.78;5071320;28;20067;-85
2024/01/12 07:23:51;;;;;;;41.83;20.38;;;;;;;-2.05;100.00;100755.34;5054100;28;20464;-85
2024/01/12 07:26:17;;;;;;;40.80;20.67;;;;;;;-1.95;100.00;100780.22;5070959;28;20028;-85
2024/01/12 07:28:42;;;;;;;41.83;20.13;;;;;;;-1.91;100.00;100793.94;5055090;28;20483;-85
2024/01/12 07:31:08;;;;;;;43.75;22.27;;;;;;;-1.98;100.00;100782.72;5053769;28;20054;-85
2024/01/12 07:33:33;;;;;;;44.67;21.08;;;;;;;-1.84;100.00;100816.22;5071570;28;20082;-85
2024/01/12 07:35:58;;;;;;;39.47;21.13;;;;;;;-1.79;100.00;100810.38;5054765;28;20029;-85
2024/01/12 07:38:24;;;;;;;48.83;27.42;;;;;;;-1.99;100.00;100764.81;5071391;28;20090;-85
2024/01/12 07:40:49;;;;;;;57.83;30.08;;;;;;;-1.80;100.00;100793.34;5054099;28;20032;-85
2024/01/12 07:43:15;;;;;;;59.20;29.65;;;;;;;-1.86;100.00;100780.41;5070894;28;20029;-85
2024/01/12 07:45:40;;;;;;;57.33;28.10;;;;;;;-1.76;100.00;100784.06;5054383;28;20460;-86
2024/01/12 07:48:07;;;;;;;66.97;32.17;;;;;;;-1.68;100.00;100792.75;5072345;28;20040;-85
2024/01/12 07:50:33;;;;;;;70.32;35.83;;;;;;;-1.69;100.00;100787.59;5072431;28;20024;-86
2024/01/12 07:52:59;;;;;;;72.18;35.30;;;;;;;-1.63;100.00;100792.84;5090857;28;20059;-85
2024/01/12 07:55:24;;;;;;;60.20;30.27;;;;;;;-1.76;100.00;100771.28;5092715;28;20040;-84
2024/01/12 07:57:50;;;;;;;56.40;26.55;;;;;;;-1.66;100.00;100775.75;5092053;28;20079;-84
2024/01/12 08:00:16;;;;;;;55.88;25.85;;;;;;;-1.62;100.00;100785.19;5076950;28;20032;-85
2024/01/12 08:02:41;;;;;;;53.55;24.63;;;;;;;-1.70;100.00;100756.06;5076533;28;20023;-84
2024/01/12 08:05:07;;;;;;;55.58;27.30;;;;;;;-1.61;100.00;100765.63;5092296;28;20039;-84
2024/01/12 08:07:32;;;;;;;56.40;27.52;;;;;;;-1.80;100.00;100731.19;5075341;28;20020;-84
2024/01/12 08:09:58;;;;;;;55.65;26.40;;;;;;;-1.80;100.00;100723.53;5093321;28;20095;-85
2024/01/12 08:12:23;;;;;;;54.30;25.98;;;;;;;-1.62;100.00;100756.25;5074073;28;20463;-85
2024/01/12 08:14:49;;;;;;;54.53;25.85;;;;;;;-1.39;100.00;100788.25;5049986;28;20033;-84
2024/01/12 08:17:14;;;;;;;61.45;26.88;;;;;;;-1.39;100.00;100783.13;5050925;28;20494;-84
2024/01/12 08:19:39;;;;;;;53.47;24.15;;;;;;;-1.52;100.00;100756.47;5034580;28;20040;-85
2024/01/12 08:22:05;;;;;;;47.17;21.30;;;;;;;-1.47;100.00;100766.78;5049955;28;20148;-85
2024/01/12 08:24:30;;;;;;;48.45;21.58;;;;;;;-1.48;100.00;100753.97;5033935;28;20128;-85
2024/01/12 08:26:56;;;;;;;49.83;22.42;;;;;;;-1.51;100.00;100755.63;5032814;28;20021;-84
2024/01/12 08:29:21;;;;;;;44.35;22.67;;;;;;;-1.32;100.00;100787.50;5034644;28;20033;-84
2024/01/12 08:31:46;;;;;;;44.17;22.15;;;;;;;-1.62;100.00;100729.00;5052516;28;20078;-85
2024/01/12 08:34:12;;;;;;;49.63;23.42;;;;;;;-1.59;100.00;100731.63;5054130;28;20032;-84
2024/01/12 08:36:37;;;;;;;54.50;24.45;;;;;;;-1.31;100.00;100767.91;5038712;28;20025;-85
2024/01/12 08:39:03;;;;;;;47.55;24.02;;;;;;;-1.36;100.00;100770.38;5053922;28;20044;-85
2024/01/12 08:41:29;;;;;;;41.70;20.45;;;;;;;-1.37;100.00;100771.22;5050675;28;20068;-84
2024/01/12 08:43:54;;;;;;;39.70;21.98;;;;;;;-1.40;100.00;100771.16;5038332;28;20036;-85
2024/01/12 08:46:20;;;;;;;47.35;22.90;;;;;;;-1.33;100.00;100770.47;5044684;28;20044;-84
2024/01/12 08:48:45;;;;;;;43.80;21.05;;;;;;;-1.24;100.00;100763.81;5056347;28;20021;-84
2024/01/12 08:51:11;;;;;;;43.53;22.17;;;;;;;-1.15;100.00;100774.19;5051557;28;20071;-84
2024/01/12 08:53:37;;;;;;;48.70;25.92;;;;;;;-1.18;100.00;100769.03;5052534;28;20072;-84
2024/01/12 08:56:02;;;;;;;46.60;21.55;;;;;;;-1.41;100.00;100732.81;5051395;28;20063;-84
2024/01/12 08:58:27;;;;;;;41.10;19.25;;;;;;;-1.18;100.00;100761.34;5057019;28;20151;-84
2024/01/12 09:00:53;;;;;;;46.67;22.38;;;;;;;-1.05;100.00;100771.84;5038228;28;20055;-84
2024/01/12 09:03:19;;;;;;;44.58;22.92;;;;;;;-1.37;100.00;100712.44;5060381;28;20033;-84
2024/01/12 09:05:44;;;;;;;47.47;22.88;;;;;;;-1.13;100.00;100740.16;5062827;28;20380;-84
2024/01/12 09:08:10;;;;;;;46.38;21.50;;;;;;;-0.98;100.00;100757.47;5053827;28;20391;-84
2024/01/12 09:10:36;;;;;;;49.03;22.35;;;;;;;-1.11;100.00;100729.97;5041122;28;20380;-84
2024/01/12 09:13:02;;;;;;;50.33;24.08;;;;;;;-0.79;100.00;100771.47;5036028;28;20044;-84
2024/01/12 09:15:28;;;;;;;46.60;25.58;;;;;;;-0.99;100.00;100722.50;5042239;28;20110;-84
2024/01/12 09:17:53;;;;;;;47.65;23.45;;;;;;;-0.74;100.00;100759.59;5014780;28;20034;-84
2024/01/12 09:20:19;;;;;;;41.78;20.75;;;;;;;-0.82;100.00;100740.69;5031682;28;20145;-85
2024/01/12 09:22:45;;;;;;;48.15;23.20;;;;;;;-0.72;100.00;100751.94;5029880;28;20040;-84
2024/01/12 09:25:10;;;;;;;58.13;30.48;;;;;;;-0.91;100.00;100730.31;5053020;28;20523;-85
2024/01/12 09:27:36;;;;;;;65.72;34.65;;;;;;;-0.67;100.00;100770.81;5051801;28;20136;-85
2024/01/12 09:30:01;;;;;;;247.32;122.28;;;;;;;-0.81;100.00;100732.19;5050253;28;20033;-84
2024/01/12 09:32:26;;;;;;;102.25;50.05;;;;;;;-0.84;100.00;100724.47;5050169;28;20464;-85
2024/01/12 09:34:52;;;;;;;196.25;105.68;;;;;;;-0.61;100.00;100758.09;5049580;28;20158;-85
2024/01/12 09:37:17;;;;;;;84.35;49.03;;;;;;;-0.69;100.00;100744.31;5032689;28;20504;-85
2024/01/12 09:39:43;;;;;;;52.08;28.10;;;;;;;-0.61;100.00;100753.84;5034244;28;20032;-84
2024/01/12 09:42:12;;;;;;;47.95;30.20;;;;;;;-0.63;100.00;100750.41;5048473;28;20040;-84
2024/01/12 09:44:38;;;;;;;45.40;28.67;;;;;;;-0.66;100.00;100731.59;5055575;28;20536;-84
2024/01/12 09:47:04;;;;;;;40.00;22.45;;;;;;;-0.49;100.00;100742.97;5057154;28;20029;-84
2024/01/12 09:49:30;;;;;;;90.10;49.10;;;;;;;-0.47;100.00;100748.09;5054831;28;20075;-84
2024/01/12 09:52:00;;;;;;;95.50;52.13;;;;;;;-0.57;100.00;100719.81;5054473;28;20025;-84
2024/01/12 09:54:26;;;;;;;137.98;79.03;;;;;;;-0.48;100.00;100739.56;5057850;28;20107;-84
2024/01/12 09:56:52;;;;;;;41.88;23.20;;;;;;;-0.35;100.00;100759.38;5056404;28;20061;-84
2024/01/12 09:59:19;;;;;;;66.63;44.25;;;;;;;-0.42;100.00;100744.78;5056423;28;20021;-84
2024/01/12 10:01:45;;;;;;;43.03;23.75;;;;;;;-0.36;100.00;100744.00;5055821;28;20117;-84
2024/01/12 10:04:10;;;;;;;41.00;20.50;;;;;;;-0.51;100.00;100730.16;5055567;28;20067;-84
2024/01/12 10:06:36;;;;;;;42.55;21.27;;;;;;;-0.58;100.00;100705.28;5055377;28;20073;-84
2024/01/12 10:09:02;;;;;;;35.08;20.48;;;;;;;-0.43;100.00;100724.25;5055972;28;20388;-84
2024/01/12 10:11:27;;;;;;;37.30;20.50;;;;;;;-0.34;100.00;100738.09;5056201;28;20021;-84
2024/01/12 10:13:53;;;;;;;36.72;19.42;;;;;;;-0.28;100.00;100744.97;5054788;28;20017;-84
2024/01/12 10:16:20;;;;;;;33.00;18.83;;;;;;;-0.26;100.00;100745.84;5055681;28;20021;-84
2024/01/12 10:18:46;;;;;;;31.58;17.55;;;;;;;-0.50;100.00;100702.84;5054934;28;20029;-84
2024/01/12 10:21:13;;;;;;;38.42;18.58;;;;;;;-0.31;100.00;100732.97;5054963;28;20027;-84
2024/01/12 10:23:40;;;;;;;29.33;16.40;;;;;;;-0.31;100.00;100744.94;5070927;28;20032;-85
2024/01/12 10:26:06;;;;;;;34.10;19.80;;;;;;;-0.22;100.00;100765.53;5055557;28;20025;-84
2024/01/12 10:28:32;;;;;;;29.40;15.02;;;;;;;-0.53;100.00;100697.69;5056167;28;20125;-84
2024/01/12 10:30:58;;;;;;;30.40;18.15;;;;;;;-0.21;100.00;100751.94;5060812;28;20096;-84
2024/01/12 10:33:24;;;;;;;35.42;18.73;;;;;;;-0.53;100.00;100710.47;5062017;28;20059;-84
2024/01/12 10:36:20;;;;;;;34.70;19.90;;;;;;;-0.30;100.00;100738.97;5063190;28;20020;-84
2024/01/12 10:38:48;;;;;;;32.78;17.08;;;;;;;-0.07;100.00;100767.47;5080475;28;20064;-84
2024/01/12 10:41:19;;;;;;;33.10;16.30;;;;;;;-0.13;100.00;100746.88;5080253;28;20028;-84
2024/01/12 10:43:53;;;;;;;24.55;13.88;;;;;;;-0.06;100.00;100741.03;5081520;28;20059;-84
2024/01/12 10:46:40;;;;;;;20.40;12.65;;;;;;;-0.33;100.00;100691.16;5063989;28;20035;-84
2024/01/12 10:49:15;;;;;;;24.85;13.05;;;;;;;-0.05;100.00;100747.88;5080923;28;20040;-83
2024/01/12 10:52:10;;;;;;;28.50;16.08;;;;;;;-0.18;100.00;100705.00;5081837;28;20041;-83
2024/01/12 10:54:53;;;;;;;32.00;16.35;;;;;;;-0.01;100.00;100727.44;5005189;28;20285;-84
2024/01/12 10:57:20;;;;;;;29.55;14.90;;;;;;;-0.05;100.00;100723.09;5000952;28;20441;-84